createdAt,value
2023-03-10T00:00:18.713Z,13.77
2023-03-10T00:05:41.365Z,14.33
2023-03-10T00:11:04.156Z,14.63
2023-03-10T00:16:29.510Z,14.53
2023-03-10T00:21:51.719Z,14.20
2023-03-10T00:27:16.309Z,13.30
2023-03-10T00:32:38.768Z,14.63
2023-03-10T00:38:02.662Z,13.60
2023-03-10T00:43:25.115Z,14.00
2023-03-10T00:48:48.038Z,14.47
2023-03-10T00:54:10.565Z,14.80
2023-03-10T00:59:47.742Z,13.17
2023-03-10T01:05:12.278Z,13.73
2023-03-10T01:10:34.717Z,13.63
2023-03-10T01:15:58.659Z,13.23
2023-03-10T01:21:31.972Z,12.63
2023-03-10T01:26:54.462Z,13.83
2023-03-10T01:32:17.271Z,12.63
2023-03-10T01:37:39.993Z,12.57
2023-03-10T01:43:26.934Z,12.33
2023-03-10T01:48:49.801Z,12.70
2023-03-10T01:54:17.446Z,13.27
2023-03-10T01:59:41.482Z,11.83
2023-03-10T02:05:04.340Z,10.27
2023-03-10T02:10:30.044Z,10.67
2023-03-10T02:15:53.015Z,10.73
2023-03-10T02:22:05.318Z,10.00
2023-03-10T02:27:31.463Z,9.70
2023-03-10T02:32:58.541Z,9.77
2023-03-10T02:38:22.196Z,9.70
2023-03-10T02:43:45.307Z,10.30
2023-03-10T02:49:19.939Z,9.37
2023-03-10T02:54:42.482Z,8.73
2023-03-10T03:00:08.406Z,8.47
2023-03-10T03:05:31.092Z,8.40
2023-03-10T03:10:54.572Z,7.80
2023-03-10T03:16:17.564Z,8.53
2023-03-10T03:21:50.209Z,8.10
2023-03-10T03:27:13.865Z,7.93
2023-03-10T03:32:36.625Z,7.80
2023-03-10T03:38:01.205Z,7.67
2023-03-10T03:43:23.876Z,8.17
2023-03-10T03:48:47.262Z,8.37
2023-03-10T03:54:09.530Z,7.60
2023-03-10T03:59:35.498Z,7.00
2023-03-10T04:04:58.039Z,7.00
2023-03-10T04:10:23.737Z,7.40
2023-03-10T04:15:47.327Z,6.10
2023-03-10T04:21:10.746Z,6.57
2023-03-10T04:26:33.611Z,7.00
2023-03-10T04:32:05.205Z,6.73
2023-03-10T04:37:31.638Z,6.63
2023-03-10T04:42:54.628Z,6.83
2023-03-10T04:48:17.553Z,6.77
2023-03-10T04:53:40.566Z,7.10
2023-03-10T04:59:03.632Z,6.87
2023-03-10T05:04:26.626Z,6.63
2023-03-10T05:09:50.550Z,6.40
2023-03-10T05:15:13.916Z,6.83
2023-03-10T05:20:37.994Z,7.20
2023-03-10T05:26:09.512Z,6.47
2023-03-10T05:31:32.503Z,6.57
2023-03-10T05:37:00.642Z,7.40
2023-03-10T05:42:24.267Z,7.10
2023-03-10T05:47:47.003Z,7.27
2023-03-10T05:53:12.162Z,6.70
2023-03-10T05:58:35.398Z,7.57
2023-03-10T06:03:58.422Z,7.00
2023-03-10T06:09:21.008Z,7.60
2023-03-10T06:14:43.355Z,6.57
2023-03-10T06:20:06.295Z,7.17
2023-03-10T06:25:28.903Z,6.30
2023-03-10T06:30:56.486Z,6.23
2023-03-10T06:36:19.522Z,6.77
2023-03-10T06:41:43.542Z,6.47
2023-03-10T06:47:06.254Z,6.47
2023-03-10T06:52:28.580Z,6.30
2023-03-10T06:57:50.901Z,5.83
2023-03-10T07:03:13.356Z,6.27
2023-03-10T07:08:36.370Z,6.60
2023-03-10T07:13:58.672Z,6.43
2023-03-10T07:19:21.116Z,5.77
2023-03-10T07:24:43.697Z,5.23
2023-03-10T07:30:07.612Z,5.73
2023-03-10T07:35:29.979Z,5.37
2023-03-10T07:40:52.997Z,5.60
2023-03-10T07:46:16.082Z,5.53
2023-03-10T07:51:38.555Z,5.50
2023-03-10T07:57:00.948Z,5.07
2023-03-10T08:02:23.745Z,5.50
2023-03-10T08:07:46.772Z,4.93
2023-03-10T08:13:09.639Z,5.27
2023-03-10T08:18:33.150Z,5.93
2023-03-10T08:23:55.753Z,5.70
2023-03-10T08:29:18.127Z,5.37
2023-03-10T08:34:41.952Z,6.00
2023-03-10T08:40:07.977Z,6.43
2023-03-10T08:45:30.408Z,6.77
2023-03-10T08:50:53.042Z,6.43
2023-03-10T08:56:17.468Z,7.03
2023-03-10T09:01:40.462Z,7.13
2023-03-10T09:07:03.049Z,7.23
2023-03-10T09:12:33.475Z,7.27
2023-03-10T09:17:56.980Z,7.53
2023-03-10T09:23:19.906Z,7.80
2023-03-10T09:28:42.786Z,8.07
2023-03-10T09:34:06.636Z,8.70
2023-03-10T09:39:29.087Z,9.47
2023-03-10T09:45:09.964Z,8.20
2023-03-10T09:50:38.330Z,7.97
2023-03-10T09:56:01.019Z,10.10
2023-03-10T10:01:29.879Z,10.40
2023-03-10T10:06:52.300Z,9.67
2023-03-10T10:12:17.321Z,10.53
2023-03-10T10:18:20.032Z,10.33
2023-03-10T10:23:50.166Z,11.50
2023-03-10T10:29:34.884Z,10.97
2023-03-10T10:35:14.063Z,10.13
2023-03-10T10:40:47.590Z,10.60
2023-03-10T10:46:12.148Z,11.37
2023-03-10T10:51:37.990Z,11.60
2023-03-10T10:57:01.745Z,11.90
2023-03-10T11:02:34.982Z,11.13
2023-03-10T11:08:17.896Z,9.43
2023-03-10T11:13:53.244Z,9.63
2023-03-10T11:19:40.462Z,9.03
2023-03-10T11:25:31.607Z,9.57
2023-03-10T11:31:13.180Z,9.77
2023-03-10T11:36:55.805Z,9.93
2023-03-10T11:42:20.205Z,10.20
2023-03-10T11:48:20.550Z,9.83
2023-03-10T11:53:44.834Z,9.73
2023-03-10T11:59:14.501Z,9.87
2023-03-10T12:04:48.753Z,10.13
2023-03-10T12:10:16.911Z,12.27
2023-03-10T12:15:40.067Z,11.27
2023-03-10T12:21:33.790Z,11.07
2023-03-10T12:27:03.786Z,11.77
2023-03-10T12:32:41.936Z,12.17
2023-03-10T12:39:01.929Z,12.27
2023-03-10T12:44:36.341Z,12.37
2023-03-10T12:50:19.674Z,12.73
2023-03-10T12:55:42.263Z,11.93
2023-03-10T13:01:12.093Z,11.93
2023-03-10T13:06:38.784Z,10.83
2023-03-10T13:12:11.644Z,10.87
2023-03-10T13:17:34.392Z,9.63
2023-03-10T13:22:58.904Z,9.30
2023-03-10T13:28:24.193Z,9.80
2023-03-10T13:33:53.350Z,9.17
2023-03-10T13:39:17.592Z,8.50
2023-03-10T13:44:41.616Z,7.83
2023-03-10T13:50:04.599Z,6.80
2023-03-10T13:55:28.615Z,7.20
2023-03-10T14:00:52.434Z,5.87
2023-03-10T14:06:15.134Z,6.53
2023-03-10T14:11:47.118Z,5.77
2023-03-10T14:17:30.073Z,5.83
2023-03-10T14:22:52.677Z,5.70
2023-03-10T14:28:22.301Z,5.80
2023-03-10T14:33:44.852Z,4.77
2023-03-10T14:39:09.413Z,5.53
2023-03-10T14:44:33.127Z,5.00
2023-03-10T14:49:55.816Z,4.70
2023-03-10T14:55:18.177Z,4.63
2023-03-10T15:00:40.706Z,4.93
2023-03-10T15:06:03.229Z,5.17
2023-03-10T15:11:36.819Z,6.17
2023-03-10T15:17:00.906Z,6.17
2023-03-10T15:22:24.017Z,7.70
2023-03-10T15:27:48.583Z,6.30
2023-03-10T15:33:11.370Z,6.23
2023-03-10T15:38:33.939Z,6.33
2023-03-10T15:43:56.780Z,5.93
2023-03-10T15:49:19.496Z,6.20
2023-03-10T15:54:41.924Z,6.60
2023-03-10T16:00:04.586Z,6.60
2023-03-10T16:05:27.388Z,6.87
2023-03-10T16:10:54.373Z,6.47
2023-03-10T16:16:18.944Z,7.20
2023-03-10T16:21:41.789Z,8.10
2023-03-10T16:27:04.321Z,8.40
2023-03-10T16:32:27.048Z,9.57
2023-03-10T16:37:49.491Z,9.33
2023-03-10T16:43:11.902Z,9.63
2023-03-10T16:48:34.883Z,10.07
2023-03-10T16:54:00.226Z,10.67
2023-03-10T16:59:24.919Z,9.03
2023-03-10T17:04:47.567Z,9.47
2023-03-10T17:10:10.977Z,9.50
2023-03-10T17:15:33.306Z,9.93
2023-03-10T17:20:55.883Z,11.03
2023-03-10T17:26:18.910Z,9.93
2023-03-10T17:31:41.500Z,10.00
2023-03-10T17:37:03.853Z,9.30
2023-03-10T17:42:29.010Z,8.30
2023-03-10T17:47:52.297Z,8.83
2023-03-10T17:53:14.903Z,7.73
2023-03-10T17:58:37.712Z,8.23
2023-03-10T18:04:01.068Z,8.10
2023-03-10T18:09:23.728Z,9.40
2023-03-10T18:14:46.119Z,7.90
2023-03-10T18:20:13.313Z,7.83
2023-03-10T18:25:43.552Z,7.80
2023-03-10T18:31:09.099Z,8.57
2023-03-10T18:36:33.189Z,8.93
2023-03-10T18:41:55.935Z,8.37
2023-03-10T18:47:19.245Z,9.80
2023-03-10T18:52:42.660Z,9.97
2023-03-10T18:58:05.207Z,10.33
2023-03-10T19:03:31.291Z,10.37
2023-03-10T19:08:53.811Z,8.80
2023-03-10T19:14:16.892Z,12.30
2023-03-10T19:19:39.346Z,12.17
2023-03-10T19:25:03.577Z,10.40
2023-03-10T19:30:26.434Z,12.40
2023-03-10T19:35:50.064Z,11.17
2023-03-10T19:41:16.856Z,11.20
2023-03-10T19:46:39.391Z,10.77
2023-03-10T19:52:02.180Z,11.27
2023-03-10T19:57:24.985Z,10.03
2023-03-10T20:02:47.429Z,10.57
2023-03-10T20:08:09.984Z,11.50
2023-03-10T20:13:33.685Z,10.87
2023-03-10T20:18:56.220Z,11.33
2023-03-10T20:24:20.777Z,10.87
2023-03-10T20:29:43.035Z,9.40
2023-03-10T20:35:06.121Z,9.27
2023-03-10T20:40:28.804Z,9.13
2023-03-10T20:45:52.828Z,8.77
2023-03-10T20:51:15.944Z,8.80
2023-03-10T20:56:39.721Z,9.00
2023-03-10T21:02:02.688Z,8.13
2023-03-10T21:07:25.052Z,7.53
2023-03-10T21:12:47.629Z,7.37
2023-03-10T21:18:10.160Z,7.63
2023-03-10T21:23:34.526Z,6.73
2023-03-10T21:29:03.351Z,7.10
2023-03-10T21:34:26.706Z,7.53
2023-03-10T21:39:49.757Z,7.23
2023-03-10T21:45:15.933Z,7.97
2023-03-10T21:50:38.836Z,7.90
2023-03-10T21:56:01.121Z,8.73
2023-03-10T22:01:25.348Z,8.07
2023-03-10T22:06:47.939Z,8.13
2023-03-10T22:12:10.932Z,8.43
2023-03-10T22:17:34.022Z,7.50
2023-03-10T22:22:57.422Z,7.37
2023-03-10T22:28:20.222Z,8.00
2023-03-10T22:33:42.587Z,8.37
2023-03-10T22:39:04.736Z,8.70
2023-03-10T22:44:27.236Z,7.70
2023-03-10T22:49:49.785Z,8.40
2023-03-10T22:55:17.986Z,7.03
2023-03-10T23:00:40.605Z,7.47
2023-03-10T23:06:06.683Z,6.77
2023-03-10T23:11:29.814Z,6.90
2023-03-10T23:16:52.399Z,6.67
2023-03-10T23:22:15.006Z,6.30
2023-03-10T23:27:37.750Z,6.40
2023-03-10T23:32:59.894Z,6.97
2023-03-10T23:38:25.297Z,6.17
2023-03-10T23:43:47.825Z,6.17
2023-03-10T23:49:10.376Z,6.73
2023-03-10T23:54:32.805Z,5.27
2023-03-10T23:59:55.364Z,5.70
